Time;durP1;ratioP1;P1;durP2;ratioP2;P2;SDS_P1;SDS_P2;PMS_P1;PMS_P2;Temp;Humidity;BMP_temperature;BMP_pressure;BME280_temperature;BME280_humidity;BME280_pressure;Samples;Min_cycle;Max_cycle;Signal;HPM_P1;HPM_P2
2023/05/16 00:02:20;;;;;;;14.40;11.57;;;;;;;10.37;93.46;100108.41;4928366;29;20685;-82
2023/05/16 00:04:48;;;;;;;12.70;11.50;;;;;;;10.26;94.32;100100.78;4928660;29;20677;-82
2023/05/16 00:07:14;;;;;;;12.47;11.37;;;;;;;10.27;93.98;100098.16;4929219;29;20218;-83
2023/05/16 00:09:41;;;;;;;12.10;11.10;;;;;;;10.31;94.11;100106.78;4929346;29;20206;-80
2023/05/16 00:12:09;;;;;;;11.20;10.30;;;;;;;10.42;93.65;100107.38;4928530;29;20205;-82
2023/05/16 00:14:36;;;;;;;11.50;10.37;;;;;;;10.37;92.65;100127.53;4929260;29;20214;-81
2023/05/16 00:17:03;;;;;;;11.53;10.43;;;;;;;10.40;92.62;100142.25;4931895;29;20232;-81
2023/05/16 00:19:30;;;;;;;10.40;9.37;;;;;;;10.44;92.63;100144.72;4934388;29;20244;-81
2023/05/16 00:21:56;;;;;;;10.73;9.80;;;;;;;10.25;92.80;100140.81;4928900;29;20440;-81
2023/05/16 00:24:22;;;;;;;9.80;9.10;;;;;;;10.28;92.91;100143.34;4932024;29;20213;-82
2023/05/16 00:26:49;;;;;;;9.17;8.37;;;;;;;10.12;93.77;100133.25;4939186;29;20283;-81
2023/05/16 00:29:16;;;;;;;9.63;8.83;;;;;;;10.17;94.04;100124.44;4939099;29;20244;-82
2023/05/16 00:31:43;;;;;;;8.33;7.70;;;;;;;10.24;94.21;100120.81;4939292;29;20245;-79
2023/05/16 00:34:09;;;;;;;8.40;7.70;;;;;;;10.19;94.04;100125.28;4939874;29;20248;-83
2023/05/16 00:36:35;;;;;;;8.83;8.03;;;;;;;10.11;93.94;100120.25;4939514;29;20229;-81
2023/05/16 00:39:02;;;;;;;8.03;7.43;;;;;;;10.14;94.17;100128.84;4939212;29;20312;-82
2023/05/16 00:41:28;;;;;;;7.57;6.97;;;;;;;10.20;94.38;100121.78;4939032;29;20260;-79
2023/05/16 00:43:54;;;;;;;8.13;7.17;;;;;;;10.26;94.00;100122.50;4939231;29;20241;-81
2023/05/16 00:46:22;;;;;;;8.20;7.43;;;;;;;10.32;94.60;100121.53;4940414;29;20746;-82
2023/05/16 00:48:48;;;;;;;8.80;7.90;;;;;;;10.34;94.31;100119.75;4944806;28;20229;-81
2023/05/16 00:51:15;;;;;;;8.40;7.73;;;;;;;10.24;93.67;100126.03;4938809;29;20234;-82
2023/05/16 00:53:42;;;;;;;9.10;8.30;;;;;;;10.17;94.03;100127.06;4940102;29;20210;-82
2023/05/16 00:56:09;;;;;;;9.93;9.17;;;;;;;10.32;94.72;100117.16;4940086;29;20230;-81
2023/05/16 00:58:37;;;;;;;9.77;9.00;;;;;;;10.27;94.85;100121.63;4940227;29;20647;-82
2023/05/16 01:01:04;;;;;;;10.40;8.00;;;;;;;10.42;94.07;100119.56;4939173;29;20351;-83
2023/05/16 01:03:31;;;;;;;8.30;7.60;;;;;;;10.48;93.79;100129.88;4938843;29;20205;-81
2023/05/16 01:05:58;;;;;;;9.87;8.90;;;;;;;10.32;94.51;100130.22;4938921;29;20727;-80
2023/05/16 01:08:24;;;;;;;9.07;8.37;;;;;;;10.21;95.05;100120.88;4939586;29;20213;-83
2023/05/16 01:11:00;;;;;;;8.83;8.03;;;;;;;10.14;96.08;100112.34;4939174;29;20209;-80
2023/05/16 01:13:33;;;;;;;8.13;7.53;;;;;;;10.24;96.81;100103.41;4939286;29;20197;-82
2023/05/16 01:16:04;;;;;;;10.50;8.17;;;;;;;10.32;96.98;100095.44;4938884;29;20267;-82
2023/05/16 01:18:42;;;;;;;8.23;7.53;;;;;;;10.43;96.81;100087.38;4938117;29;20236;-82
2023/05/16 01:21:12;;;;;;;8.47;7.77;;;;;;;10.22;97.90;100088.72;4939036;29;20709;-81
2023/05/16 01:23:53;;;;;;;7.83;7.23;;;;;;;10.12;98.54;100082.84;4938907;29;20233;-83
2023/05/16 01:26:22;;;;;;;7.87;7.27;;;;;;;10.04;99.51;100076.94;4939228;29;20235;-82
2023/05/16 01:28:50;;;;;;;7.57;7.00;;;;;;;10.05;99.87;100063.88;4938977;29;20640;-82
2023/05/16 01:31:17;;;;;;;7.43;6.87;;;;;;;10.17;98.61;100083.59;4937980;29;20673;-83
2023/05/16 01:33:43;;;;;;;6.90;6.40;;;;;;;10.14;97.36;100100.16;4938948;29;20245;-82
2023/05/16 01:36:16;;;;;;;6.57;6.17;;;;;;;10.31;96.65;100120.69;4938453;29;20234;-82
2023/05/16 01:38:50;;;;;;;7.07;6.47;;;;;;;10.34;96.07;100138.00;4938307;29;20261;-81
2023/05/16 01:41:25;;;;;;;7.77;6.90;;;;;;;10.31;94.57;100157.22;4938372;29;20212;-81
2023/05/16 01:43:54;;;;;;;7.90;7.30;;;;;;;10.36;93.35;100182.34;4938318;29;20240;-83
2023/05/16 01:46:24;;;;;;;7.07;6.47;;;;;;;10.34;93.27;100204.09;4937877;29;20300;-82
2023/05/16 01:48:53;;;;;;;7.90;7.27;;;;;;;10.37;93.21;100202.34;4944217;29;20260;-81
2023/05/16 01:51:22;;;;;;;7.57;6.93;;;;;;;10.41;93.29;100210.06;4957622;29;20211;-82
2023/05/16 01:53:50;;;;;;;8.93;8.13;;;;;;;10.24;93.43;100212.97;4957544;29;20244;-80
2023/05/16 01:56:18;;;;;;;9.10;8.40;;;;;;;10.32;93.65;100205.88;4957328;28;20235;-82
2023/05/16 01:58:47;;;;;;;9.43;8.47;;;;;;;10.41;94.15;100202.22;4957203;28;20236;-83
2023/05/16 02:01:13;;;;;;;9.13;8.13;;;;;;;10.26;96.34;100184.25;4957192;28;20237;-81
2023/05/16 02:03:39;;;;;;;9.70;8.90;;;;;;;10.29;98.09;100135.50;4957468;29;20716;-82
2023/05/16 02:06:06;;;;;;;8.60;7.90;;;;;;;10.09;100.00;100109.00;4957694;28;20228;-82
2023/05/16 02:08:33;;;;;;;9.13;8.53;;;;;;;10.04;100.00;100079.56;4957179;29;20209;-81
2023/05/16 02:10:59;;;;;;;8.63;7.83;;;;;;;10.16;100.00;100063.63;4957113;28;20236;-83
2023/05/16 02:13:25;;;;;;;9.37;8.53;;;;;;;10.19;100.00;100054.84;4957500;29;20303;-82
2023/05/16 02:15:53;;;;;;;11.40;10.30;;;;;;;10.19;100.00;100054.84;4956419;28;20738;-82
2023/05/16 02:18:19;;;;;;;10.17;9.37;;;;;;;10.18;100.00;100068.81;4939070;29;20261;-83
2023/05/16 02:20:46;;;;;;;11.33;9.93;;;;;;;10.15;100.00;100082.78;4937897;29;20263;-82
2023/05/16 02:23:12;;;;;;;11.00;10.00;;;;;;;10.17;99.77;100107.06;4938320;29;20240;-81
2023/05/16 02:25:39;;;;;;;11.47;10.50;;;;;;;10.21;98.65;100129.59;4937873;29;20261;-82
2023/05/16 02:28:05;;;;;;;11.20;10.27;;;;;;;10.21;98.92;100131.31;4937682;29;20213;-82
2023/05/16 02:30:32;;;;;;;10.53;9.60;;;;;;;10.31;98.68;100133.72;4941526;29;20221;-83
2023/05/16 02:32:59;;;;;;;9.77;8.90;;;;;;;10.39;97.72;100146.59;4943902;29;20240;-82
2023/05/16 02:35:26;;;;;;;9.83;8.93;;;;;;;10.51;97.32;100154.16;4944098;29;20787;-82
2023/05/16 02:37:52;;;;;;;9.10;8.27;;;;;;;10.47;97.97;100159.47;4943968;29;20244;-82
2023/05/16 02:40:18;;;;;;;7.73;7.03;;;;;;;10.28;98.08;100156.38;4944846;29;20249;-83
2023/05/16 02:42:44;;;;;;;8.43;7.73;;;;;;;10.39;97.81;100156.19;4943775;29;20650;-82
2023/05/16 02:45:11;;;;;;;8.27;7.57;;;;;;;10.37;96.98;100178.84;4944710;29;20233;-82
2023/05/16 02:47:37;;;;;;;7.97;6.93;;;;;;;10.09;97.26;100187.25;4944985;29;20570;-83
2023/05/16 02:50:06;;;;;;;7.33;6.83;;;;;;;10.16;97.75;100190.56;4944173;29;20647;-82
2023/05/16 02:52:32;;;;;;;7.57;6.97;;;;;;;10.24;96.95;100204.31;4944245;29;20216;-82
2023/05/16 02:54:58;;;;;;;6.43;5.83;;;;;;;10.08;96.15;100207.22;4944757;29;20283;-82
2023/05/16 02:57:25;;;;;;;6.07;5.57;;;;;;;10.13;95.69;100222.81;4944421;29;20233;-82
2023/05/16 02:59:51;;;;;;;6.00;5.40;;;;;;;10.12;95.27;100244.53;4943947;29;20274;-82
2023/05/16 03:02:17;;;;;;;5.10;4.70;;;;;;;10.19;94.79;100240.94;4944553;29;20223;-81
2023/05/16 03:04:44;;;;;;;4.83;4.33;;;;;;;10.14;94.60;100258.41;4944480;29;20216;-82
2023/05/16 03:07:11;;;;;;;5.87;3.77;;;;;;;10.11;94.03;100268.91;4944416;29;20234;-82
2023/05/16 03:09:38;;;;;;;6.30;4.03;;;;;;;10.08;94.03;100276.78;4943589;29;20241;-82
2023/05/16 03:12:05;;;;;;;4.37;3.93;;;;;;;10.16;93.62;100295.75;4943975;29;20213;-82
2023/05/16 03:14:31;;;;;;;4.70;4.07;;;;;;;10.16;93.37;100307.94;4944005;29;20231;-82
2023/05/16 03:16:57;;;;;;;6.40;4.10;;;;;;;10.02;nan;100308.19;4944313;29;20241;-82
2023/05/16 03:19:24;;;;;;;5.93;3.90;;;;;;;10.13;93.45;100303.66;4944263;29;20264;-82
2023/05/16 03:21:50;;;;;;;4.20;3.80;;;;;;;10.01;93.56;100306.47;4943875;29;20692;-83
2023/05/16 03:24:20;;;;;;;5.73;3.73;;;;;;;10.04;93.25;100307.28;4943537;29;20247;-83
2023/05/16 03:26:46;;;;;;;6.03;3.33;;;;;;;10.05;93.99;100319.44;4944413;29;20262;-82
2023/05/16 03:29:13;;;;;;;4.90;2.80;;;;;;;10.00;93.85;100305.63;4944605;29;20686;-83
2023/05/16 03:31:41;;;;;;;2.77;2.50;;;;;;;10.13;94.08;100299.28;4945120;29;20253;-81
2023/05/16 03:34:07;;;;;;;4.30;2.60;;;;;;;10.08;93.21;100302.88;4944492;29;20209;-82
2023/05/16 03:36:34;;;;;;;2.57;2.13;;;;;;;10.05;93.35;100323.78;4944626;29;20279;-83
2023/05/16 03:39:00;;;;;;;4.37;2.37;;;;;;;9.92;93.83;100312.72;4949500;29;20230;-82
2023/05/16 03:41:28;;;;;;;2.73;2.53;;;;;;;9.82;94.93;100291.19;4942288;29;20208;-81
2023/05/16 03:43:54;;;;;;;2.40;2.20;;;;;;;9.98;95.27;100283.94;4941527;29;20254;-83
2023/05/16 03:46:21;;;;;;;3.40;2.30;;;;;;;9.87;94.77;100294.56;4941642;29;20245;-83
2023/05/16 03:48:47;;;;;;;6.57;2.67;;;;;;;9.86;95.19;100284.16;4941107;29;20210;-83
2023/05/16 03:51:13;;;;;;;7.37;3.77;;;;;;;9.83;95.65;100281.59;4941398;29;20245;-82
2023/05/16 03:53:40;;;;;;;4.10;2.40;;;;;;;9.82;96.49;100261.66;4940908;29;20237;-81
2023/05/16 03:56:06;;;;;;;3.17;2.40;;;;;;;9.89;96.33;100264.13;4941154;29;20312;-83
2023/05/16 03:58:34;;;;;;;3.73;3.03;;;;;;;9.87;96.77;100260.69;4941506;29;20212;-83
2023/05/16 04:01:00;;;;;;;5.00;2.83;;;;;;;9.79;96.97;100270.41;4941483;29;20304;-82
2023/05/16 04:03:28;;;;;;;3.40;3.10;;;;;;;9.82;97.82;100259.88;4942666;29;20202;-81
2023/05/16 04:05:55;;;;;;;5.47;2.90;;;;;;;9.73;99.39;100234.00;4942427;29;20229;-83
2023/05/16 04:08:22;;;;;;;5.47;3.00;;;;;;;9.76;100.00;100227.88;4942112;29;20216;-83
2023/05/16 04:10:48;;;;;;;5.57;3.33;;;;;;;9.82;100.00;100199.94;4942652;29;20238;-80
2023/05/16 04:13:15;;;;;;;6.07;3.83;;;;;;;9.62;100.00;100196.88;4942049;29;20240;-83
2023/05/16 04:15:43;;;;;;;4.20;3.37;;;;;;;9.48;100.00;100202.34;4938875;29;20264;-80
2023/05/16 04:18:09;;;;;;;4.60;2.80;;;;;;;9.59;100.00;100213.41;4938366;29;20241;-81
2023/05/16 04:20:36;;;;;;;5.60;2.97;;;;;;;9.47;99.21;100221.44;4938712;29;20230;-80
2023/05/16 04:23:02;;;;;;;5.47;2.57;;;;;;;9.46;97.43;100256.22;4938206;29;20604;-80
2023/05/16 04:25:28;;;;;;;4.97;2.60;;;;;;;9.52;96.81;100269.97;4938567;29;20253;-81
2023/05/16 04:27:55;;;;;;;7.00;2.90;;;;;;;9.57;96.17;100290.75;4938919;29;20210;-79
2023/05/16 04:30:21;;;;;;;5.30;3.27;;;;;;;9.65;96.25;100303.63;4938385;29;20699;-79
2023/05/16 04:32:48;;;;;;;4.17;3.23;;;;;;;9.69;96.21;100315.72;4938779;29;20280;-81
2023/05/16 04:35:15;;;;;;;4.67;3.20;;;;;;;9.69;95.67;100323.53;4938229;29;20209;-81
2023/05/16 04:37:41;;;;;;;6.43;2.90;;;;;;;9.75;95.09;100339.06;4938630;29;20209;-80
2023/05/16 04:40:08;;;;;;;5.43;3.10;;;;;;;9.85;95.00;100347.59;4938743;29;20677;-82
2023/05/16 04:42:35;;;;;;;9.93;2.90;;;;;;;9.87;94.13;100369.28;4938333;29;20273;-82
2023/05/16 04:45:02;;;;;;;4.53;3.40;;;;;;;9.81;94.33;100375.50;4937310;29;20237;-81
2023/05/16 04:47:29;;;;;;;5.67;3.33;;;;;;;9.72;94.18;100379.09;4978811;23;20234;-76
2023/05/16 04:49:56;;;;;;;4.97;3.17;;;;;;;9.65;94.87;100374.88;4974797;28;20212;-76
2023/05/16 04:52:23;;;;;;;6.33;3.50;;;;;;;9.68;95.05;100382.63;4974029;28;20259;-76
2023/05/16 04:54:51;;;;;;;3.30;2.43;;;;;;;9.78;95.19;100377.28;4975328;28;20304;-76
2023/05/16 04:57:17;;;;;;;6.50;4.00;;;;;;;9.82;95.29;100374.59;4974378;28;20224;-76
2023/05/16 04:59:44;;;;;;;5.97;2.83;;;;;;;9.71;93.55;100399.97;4974631;28;20283;-76
2023/05/16 05:02:10;;;;;;;5.37;3.00;;;;;;;9.79;93.78;100418.97;4974886;28;20290;-76
2023/05/16 05:04:36;;;;;;;5.53;2.97;;;;;;;9.74;94.58;100410.34;4974780;28;20222;-76
2023/05/16 05:07:04;;;;;;;4.50;2.40;;;;;;;9.77;94.38;100407.69;4974601;28;20231;-76
2023/05/16 05:09:31;;;;;;;8.37;2.90;;;;;;;9.73;95.24;100395.59;4974653;28;20637;-76
2023/05/16 05:11:57;;;;;;;5.23;2.57;;;;;;;9.81;94.05;100413.72;4974421;28;20212;-76
2023/05/16 05:14:24;;;;;;;4.57;2.50;;;;;;;9.81;93.37;100431.97;4974839;28;20236;-76
2023/05/16 05:16:50;;;;;;;7.10;2.63;;;;;;;9.67;91.33;100463.44;4974127;28;20228;-76
2023/05/16 05:19:16;;;;;;;8.33;2.50;;;;;;;9.53;90.05;100503.63;4974463;28;20262;-76
2023/05/16 05:21:43;;;;;;;8.43;2.50;;;;;;;9.63;90.20;100526.94;4974127;28;20215;-76
2023/05/16 05:24:10;;;;;;;7.30;2.83;;;;;;;9.53;90.82;100532.28;4974400;28;20718;-75
2023/05/16 05:26:37;;;;;;;4.30;2.10;;;;;;;9.42;90.45;100535.91;4974073;28;20266;-76
2023/05/16 05:29:03;;;;;;;8.37;2.40;;;;;;;9.50;90.15;100542.75;4973444;28;20667;-76
2023/05/16 05:31:30;;;;;;;2.23;1.80;;;;;;;9.61;89.82;100552.16;4973310;28;20585;-76
2023/05/16 05:33:56;;;;;;;6.13;2.30;;;;;;;9.52;89.29;100560.97;4974134;28;20299;-76
2023/05/16 05:36:22;;;;;;;7.67;2.23;;;;;;;9.43;88.95;100580.16;4973889;28;20258;-76
2023/05/16 05:38:49;;;;;;;6.67;2.37;;;;;;;9.45;87.44;100611.41;4973885;28;20629;-76
2023/05/16 05:41:16;;;;;;;8.47;2.43;;;;;;;9.41;86.85;100639.25;4973485;28;20318;-76
2023/05/16 05:43:43;;;;;;;6.93;2.87;;;;;;;9.39;86.78;100656.63;4973599;28;20247;-76
2023/05/16 05:46:09;;;;;;;3.87;2.00;;;;;;;9.44;84.48;100678.31;4973605;28;20247;-76
2023/05/16 05:48:35;;;;;;;8.10;1.93;;;;;;;9.40;82.96;100736.53;4974584;28;20219;-75
2023/05/16 05:51:02;;;;;;;5.90;2.13;;;;;;;9.40;82.68;100761.75;4973371;28;20263;-75
2023/05/16 05:53:29;;;;;;;7.63;2.27;;;;;;;9.24;82.63;100787.06;4973915;28;20239;-78
2023/05/16 05:55:55;;;;;;;6.60;2.20;;;;;;;9.38;81.92;100799.97;4976391;28;20291;-79
2023/05/16 05:58:23;;;;;;;8.40;2.03;;;;;;;9.23;82.61;100817.41;4975368;28;20227;-78
2023/05/16 06:00:49;;;;;;;10.87;1.97;;;;;;;9.18;82.54;100826.13;4974251;28;20236;-78
2023/05/16 06:03:16;;;;;;;8.70;2.10;;;;;;;9.17;82.50;100827.03;4978184;28;20243;-79
2023/05/16 06:05:42;;;;;;;9.97;2.00;;;;;;;9.34;82.17;100830.38;4980442;28;20243;-80
2023/05/16 06:08:08;;;;;;;9.83;1.83;;;;;;;9.32;81.60;100842.56;4978591;28;20254;-77
2023/05/16 06:10:35;;;;;;;11.80;2.20;;;;;;;9.36;81.71;100856.44;4976713;28;20208;-78
2023/05/16 06:13:01;;;;;;;11.77;2.20;;;;;;;9.36;82.52;100854.69;4976565;28;20690;-77
2023/05/16 06:15:29;;;;;;;11.90;2.00;;;;;;;9.42;81.44;100859.00;4975014;28;20242;-77
2023/05/16 06:17:59;;;;;;;8.20;1.67;;;;;;;9.36;80.80;100877.28;4976984;28;20250;-80
2023/05/16 06:20:40;;;;;;;8.77;2.30;;;;;;;9.43;81.27;100878.94;4976857;28;20227;-76
2023/05/16 06:23:15;;;;;;;7.40;1.60;;;;;;;9.49;79.98;100904.94;4973812;28;20207;-77
2023/05/16 06:25:42;;;;;;;5.83;1.80;;;;;;;9.44;79.77;100922.38;4979194;23;20231;-77
2023/05/16 06:28:08;;;;;;;9.50;2.00;;;;;;;9.61;79.04;100937.88;4973669;28;20228;-77
2023/05/16 06:30:36;;;;;;;6.43;2.37;;;;;;;9.62;77.84;100950.91;4963032;29;20214;-77
2023/05/16 06:33:02;;;;;;;5.47;1.40;;;;;;;9.59;77.77;100973.53;4961227;29;20209;-77
2023/05/16 06:35:28;;;;;;;11.23;1.90;;;;;;;9.66;77.46;100980.44;4957029;29;20212;-78
2023/05/16 06:37:55;;;;;;;11.40;1.97;;;;;;;9.58;76.92;101000.47;4956282;29;20782;-78
2023/05/16 06:40:21;;;;;;;8.27;1.73;;;;;;;9.60;77.53;101019.56;4956595;28;20291;-78
2023/05/16 06:42:47;;;;;;;6.73;1.53;;;;;;;9.58;75.37;101039.56;4955763;29;20213;-79
2023/05/16 06:45:14;;;;;;;4.57;1.80;;;;;;;9.48;76.50;101050.03;4958876;29;20212;-78
2023/05/16 06:47:42;;;;;;;14.23;3.73;;;;;;;9.56;76.49;101049.13;4958145;29;20228;-78
2023/05/16 06:50:09;;;;;;;9.27;2.23;;;;;;;9.76;76.26;101051.63;4956411;28;20213;-77
2023/05/16 06:52:36;;;;;;;4.80;1.50;;;;;;;9.87;76.54;101052.41;4955486;29;20205;-77
2023/05/16 06:55:02;;;;;;;9.53;3.03;;;;;;;9.76;74.81;101059.44;4955012;28;20216;-78
2023/05/16 06:57:29;;;;;;;7.00;1.63;;;;;;;9.75;75.05;101089.84;4954791;29;20209;-77
2023/05/16 06:59:55;;;;;;;5.97;2.50;;;;;;;9.79;74.85;101098.53;4954807;29;20593;-78
2023/05/16 07:02:21;;;;;;;7.60;2.80;;;;;;;9.77;73.86;101110.72;4954900;29;20209;-77
2023/05/16 07:04:49;;;;;;;8.60;1.57;;;;;;;9.73;74.81;101115.06;4954770;28;20215;-76
2023/05/16 07:07:16;;;;;;;9.20;2.70;;;;;;;9.85;74.26;101114.13;4954890;29;20208;-76
2023/05/16 07:09:42;;;;;;;7.40;1.77;;;;;;;9.89;75.71;101098.50;4955495;29;20210;-77
2023/05/16 07:12:09;;;;;;;6.20;2.03;;;;;;;9.96;75.32;101085.41;4954745;29;20232;-76
2023/05/16 07:14:35;;;;;;;12.87;2.37;;;;;;;9.91;74.07;101099.34;4954787;29;20247;-76
2023/05/16 07:17:02;;;;;;;7.27;1.77;;;;;;;9.91;73.99;101104.56;4957140;28;20585;-77
2023/05/16 07:19:28;;;;;;;8.27;2.20;;;;;;;9.98;73.10;101133.22;4958376;29;20789;-76
2023/05/16 07:21:56;;;;;;;4.40;1.50;;;;;;;9.92;73.35;101140.19;4956884;29;20686;-78
2023/05/16 07:24:22;;;;;;;5.83;1.63;;;;;;;10.08;74.09;101119.25;4959046;28;20205;-79
2023/05/16 07:26:48;;;;;;;5.10;1.37;;;;;;;9.79;74.26;101135.91;4958902;28;20606;-77
2023/05/16 07:29:15;;;;;;;6.00;1.33;;;;;;;9.78;72.62;101143.75;4958966;28;20231;-78
2023/05/16 07:31:41;;;;;;;6.40;2.10;;;;;;;9.87;71.29;101172.38;4958735;29;20211;-78
2023/05/16 07:34:09;;;;;;;3.20;1.37;;;;;;;10.09;69.62;101220.13;4958782;29;20217;-78
2023/05/16 07:36:36;;;;;;;4.07;1.63;;;;;;;10.29;69.53;101228.69;4958521;29;20209;-79
2023/05/16 07:39:04;;;;;;;6.00;2.00;;;;;;;10.26;68.73;101256.53;4959668;29;20221;-79
2023/05/16 07:41:30;;;;;;;5.83;2.47;;;;;;;10.17;67.89;101300.94;4959196;29;20267;-80
2023/05/16 07:43:57;;;;;;;4.70;1.93;;;;;;;10.10;68.50;101310.53;4959940;28;20219;-82
2023/05/16 07:46:24;;;;;;;5.83;1.00;;;;;;;9.97;67.39;101346.22;4960044;29;20210;-81
2023/05/16 07:48:50;;;;;;;2.93;1.30;;;;;;;10.19;67.24;101343.53;4964362;29;20228;-81
2023/05/16 07:51:17;;;;;;;3.73;1.23;;;;;;;10.21;65.29;101371.38;4959705;29;20209;-78
2023/05/16 07:53:43;;;;;;;4.63;1.17;;;;;;;10.28;64.08;101416.59;4960524;29;20256;-80
2023/05/16 07:56:11;;;;;;;5.73;1.23;;;;;;;10.32;62.28;101481.84;4959513;29;20679;-77
2023/05/16 07:58:38;;;;;;;4.97;1.47;;;;;;;10.46;63.20;101514.91;4958501;29;20323;-77
2023/05/16 08:01:04;;;;;;;2.47;0.87;;;;;;;10.64;61.82;101508.78;4958124;29;20302;-76
2023/05/16 08:03:31;;;;;;;2.53;1.00;;;;;;;10.92;60.57;101551.34;4958292;29;20670;-77
2023/05/16 08:05:57;;;;;;;3.17;1.20;;;;;;;11.04;60.45;101581.81;4958802;29;20216;-78
2023/05/16 08:08:24;;;;;;;4.27;1.40;;;;;;;11.25;62.86;101597.44;4959027;28;20224;-77
2023/05/16 08:10:50;;;;;;;3.27;0.70;;;;;;;11.44;61.53;101559.03;4959682;29;20730;-78
2023/05/16 08:13:18;;;;;;;2.97;1.40;;;;;;;11.56;61.69;101578.16;4960413;28;20216;-78
2023/05/16 08:15:45;;;;;;;4.50;1.53;;;;;;;11.44;62.12;101568.63;4959231;29;20663;-77
2023/05/16 08:18:13;;;;;;;5.33;1.40;;;;;;;11.14;60.46;101583.56;4958419;29;20229;-77
2023/05/16 08:20:40;;;;;;;2.93;1.43;;;;;;;11.08;58.92;101613.19;4958589;29;20239;-80
2023/05/16 08:23:06;;;;;;;5.03;1.33;;;;;;;11.13;58.56;101648.00;4958778;29;20694;-76
2023/05/16 08:25:33;;;;;;;3.27;1.00;;;;;;;11.28;58.59;101654.09;4959159;29;20208;-78
2023/05/16 08:28:00;;;;;;;3.80;1.13;;;;;;;11.49;58.87;101672.31;4958881;28;20606;-78
2023/05/16 08:30:28;;;;;;;6.30;1.77;;;;;;;11.65;60.84;101659.19;4958678;29;20231;-78
2023/05/16 08:32:55;;;;;;;5.70;1.23;;;;;;;11.38;63.16;101613.97;4957591;29;20215;-78
2023/05/16 08:35:21;;;;;;;2.57;1.30;;;;;;;11.18;63.19;101589.63;4957743;29;20732;-78
2023/05/16 08:37:47;;;;;;;6.20;1.30;;;;;;;11.02;63.52;101553.09;4957572;29;20232;-78
2023/05/16 08:40:14;;;;;;;3.60;1.57;;;;;;;11.25;63.30;101512.94;4958273;29;20236;-77
2023/05/16 08:42:41;;;;;;;3.13;1.17;;;;;;;11.41;59.57;101524.19;4957148;29;20584;-77
2023/05/16 08:45:08;;;;;;;4.03;0.90;;;;;;;11.64;59.97;101573.78;4958499;29;20267;-77
2023/05/16 08:47:39;;;;;;;4.67;1.07;;;;;;;11.37;61.32;101588.69;4957181;28;20240;-77
2023/05/16 08:50:09;;;;;;;4.83;2.53;;;;;;;11.39;61.94;101571.25;4957687;29;20211;-77
2023/05/16 08:52:39;;;;;;;3.60;1.20;;;;;;;11.25;62.26;101553.00;4957140;29;20271;-78
2023/05/16 08:55:08;;;;;;;3.70;1.60;;;;;;;11.01;62.13;101546.13;4957417;29;20216;-76
2023/05/16 08:57:35;;;;;;;4.17;1.33;;;;;;;11.11;61.49;101533.91;4957429;29;20271;-77
2023/05/16 09:00:10;;;;;;;2.97;1.23;;;;;;;11.32;61.75;101519.88;4957912;29;20212;-77
2023/05/16 09:02:38;;;;;;;3.33;0.90;;;;;;;11.52;58.97;101531.09;4958037;29;20204;-77
2023/05/16 09:05:08;;;;;;;5.40;1.00;;;;;;;11.64;57.27;101581.63;4958060;29;20212;-78
2023/05/16 09:07:34;;;;;;;3.07;0.80;;;;;;;11.67;56.83;101626.03;4958228;28;20232;-77
2023/05/16 09:10:01;;;;;;;2.07;0.80;;;;;;;11.71;57.95;101643.47;4958869;29;20212;-77
2023/05/16 09:12:27;;;;;;;5.13;1.13;;;;;;;11.66;56.75;101659.19;4956952;29;20203;-78
2023/05/16 09:14:54;;;;;;;3.77;0.90;;;;;;;11.54;56.59;101674.94;4957614;29;20578;-78
2023/05/16 09:17:21;;;;;;;6.13;1.30;;;;;;;11.60;58.27;101692.34;4957432;29;20236;-76
2023/05/16 09:19:51;;;;;;;4.33;1.27;;;;;;;11.70;58.88;101663.53;4957002;28;20208;-78
2023/05/16 09:22:18;;;;;;;3.67;1.20;;;;;;;11.60;57.11;101664.44;4956605;29;20262;-78
2023/05/16 09:24:46;;;;;;;3.40;1.47;;;;;;;11.77;56.92;101681.81;4957464;29;20205;-78
2023/05/16 09:27:14;;;;;;;5.57;1.33;;;;;;;11.87;57.90;101702.72;4957331;28;20263;-78
2023/05/16 09:29:41;;;;;;;7.10;1.57;;;;;;;12.12;59.35;101660.75;4956957;29;20212;-79
2023/05/16 09:32:13;;;;;;;2.40;0.80;;;;;;;11.87;56.54;101660.84;4956444;29;20204;-78
2023/05/16 09:34:42;;;;;;;5.90;1.50;;;;;;;12.09;56.38;101664.25;4956592;29;20707;-77
2023/05/16 09:37:11;;;;;;;2.67;1.07;;;;;;;12.14;55.71;101694.78;4956595;29;20208;-78
2023/05/16 09:39:40;;;;;;;4.73;1.07;;;;;;;12.27;57.42;101689.47;4956122;28;20229;-77
2023/05/16 09:42:11;;;;;;;5.63;1.70;;;;;;;12.31;55.75;101636.19;4956425;28;20232;-78
2023/05/16 09:44:38;;;;;;;3.73;1.37;;;;;;;12.04;55.94;101684.34;4956337;29;20660;-77
2023/05/16 09:47:04;;;;;;;2.37;0.90;;;;;;;12.21;57.13;101686.00;4956612;28;20209;-78
2023/05/16 09:49:31;;;;;;;3.50;1.20;;;;;;;12.36;58.21;101656.25;4956479;28;20623;-77
2023/05/16 09:52:00;;;;;;;3.97;0.90;;;;;;;12.34;54.16;101652.78;4956135;29;20746;-78
2023/05/16 09:54:33;;;;;;;2.63;0.70;;;;;;;12.36;53.42;101699.00;4956507;29;20641;-77
2023/05/16 09:57:00;;;;;;;3.40;1.00;;;;;;;12.47;53.28;101727.75;4956574;28;20216;-77
2023/05/16 09:59:28;;;;;;;3.20;0.70;;;;;;;12.63;52.64;101755.59;4956559;29;20781;-77
2023/05/16 10:01:57;;;;;;;3.73;0.93;;;;;;;12.45;51.74;101795.84;4955555;29;20702;-77
2023/05/16 10:04:24;;;;;;;3.97;1.20;;;;;;;12.32;53.19;101826.44;4955656;29;20208;-78
2023/05/16 10:06:51;;;;;;;1.97;0.83;;;;;;;12.02;52.54;101830.03;4955273;29;20212;-76
2023/05/16 10:09:18;;;;;;;2.53;0.80;;;;;;;11.81;54.75;101825.66;4955730;29;20612;-77
2023/05/16 10:11:48;;;;;;;3.43;0.93;;;;;;;11.93;55.75;101803.88;4955507;29;20201;-77
2023/05/16 10:14:17;;;;;;;2.90;0.80;;;;;;;12.18;54.25;101756.69;4955752;28;20282;-77
2023/05/16 10:16:47;;;;;;;4.07;1.20;;;;;;;12.37;54.69;101762.69;4955679;28;20267;-76
2023/05/16 10:19:15;;;;;;;5.07;0.97;;;;;;;12.57;52.29;101749.53;4955201;28;20232;-78
2023/05/16 10:21:47;;;;;;;1.53;1.20;;;;;;;12.62;53.09;101800.97;4955899;28;20233;-78
2023/05/16 10:24:22;;;;;;;4.97;1.40;;;;;;;12.81;53.25;101785.19;4955505;28;20209;-78
2023/05/16 10:26:51;;;;;;;3.43;1.13;;;;;;;12.93;49.90;101794.72;4955285;28;20216;-78
2023/05/16 10:29:18;;;;;;;2.77;1.00;;;;;;;12.93;49.68;101845.38;4955527;28;20713;-78
2023/05/16 10:31:44;;;;;;;3.67;0.97;;;;;;;12.91;51.20;101878.56;4955048;28;20201;-78
2023/05/16 10:34:12;;;;;;;2.70;0.80;;;;;;;13.04;51.38;101871.50;4955281;28;20212;-78
2023/05/16 10:36:39;;;;;;;3.43;1.10;;;;;;;12.90;50.13;101874.19;4955068;28;20213;-78
2023/05/16 10:39:06;;;;;;;5.03;1.03;;;;;;;12.81;51.52;101888.22;4954870;28;20319;-78
2023/05/16 10:41:34;;;;;;;3.17;1.40;;;;;;;12.81;51.92;101867.28;4954687;28;20287;-78
2023/05/16 10:44:03;;;;;;;2.53;0.73;;;;;;;12.69;52.22;101841.13;4954510;29;20267;-78
2023/05/16 10:49:20;;;;;;;1.27;0.73;;;;;;;12.79;48.50;101876.03;4950998;29;20697;-78
2023/05/16 10:51:49;;;;;;;1.37;0.60;;;;;;;12.64;51.40;101926.72;4956366;28;20558;-78
2023/05/16 10:54:18;;;;;;;2.80;0.90;;;;;;;12.51;51.99;101891.88;4958492;28;20211;-77
2023/05/16 10:56:44;;;;;;;3.77;0.90;;;;;;;12.64;52.56;101872.56;4959102;28;20620;-78
2023/05/16 10:59:27;;;;;;;2.63;0.70;;;;;;;12.74;48.86;101817.53;4959167;29;20233;-79
2023/05/16 11:01:54;;;;;;;1.63;0.73;;;;;;;13.08;49.23;101865.34;4958209;29;20238;-79
2023/05/16 11:04:21;;;;;;;1.70;0.70;;;;;;;13.29;47.50;101874.84;4959579;28;20209;-78
2023/05/16 11:06:52;;;;;;;2.07;0.67;;;;;;;13.33;46.56;101922.94;4958714;28;20630;-79
2023/05/16 11:09:22;;;;;;;1.77;0.80;;;;;;;13.41;47.80;101974.44;4958362;28;20738;-78
2023/05/16 11:11:58;;;;;;;2.83;0.80;;;;;;;13.61;48.06;101960.34;4958210;29;20212;-79
2023/05/16 11:14:27;;;;;;;2.57;0.80;;;;;;;13.44;47.55;101970.97;4958542;28;20209;-78
2023/05/16 11:17:02;;;;;;;1.73;0.67;;;;;;;13.53;46.38;101963.00;4959455;28;20205;-79
2023/05/16 11:19:30;;;;;;;1.87;0.50;;;;;;;13.46;43.55;101966.56;4958211;29;20224;-77
2023/05/16 11:22:10;;;;;;;1.63;0.53;;;;;;;13.32;44.62;102042.72;4957795;28;20276;-77
2023/05/16 11:24:38;;;;;;;2.50;0.93;;;;;;;13.57;45.95;102069.69;4959116;29;20201;-78
2023/05/16 11:27:05;;;;;;;1.90;0.90;;;;;;;14.09;45.78;102035.22;4959306;29;20210;-78
2023/05/16 11:29:35;;;;;;;1.07;0.63;;;;;;;14.33;44.27;102038.53;4958988;29;20695;-79
2023/05/16 11:32:03;;;;;;;2.33;0.70;;;;;;;15.00;44.89;102063.28;4958942;29;20233;-79